createdAt,value
2018-12-18T00:01:48.921Z,71.78
2018-12-18T00:04:20.651Z,71.44
2018-12-18T00:06:52.883Z,71.62
2018-12-18T00:09:25.179Z,71.26
2018-12-18T00:11:59.394Z,71.45
2018-12-18T00:14:31.740Z,71.44
2018-12-18T00:17:04.055Z,71.49
2018-12-18T00:19:35.999Z,71.82
2018-12-18T00:22:10.827Z,71.42
2018-12-18T00:24:42.599Z,71.69
2018-12-18T00:27:14.870Z,71.69
2018-12-18T00:29:47.092Z,71.51
2018-12-18T00:32:19.376Z,71.96
2018-12-18T00:34:51.474Z,71.57
2018-12-18T00:37:23.855Z,71.48
2018-12-18T00:39:56.148Z,71.60
2018-12-18T00:42:28.469Z,71.43
2018-12-18T00:45:00.925Z,71.74
2018-12-18T00:47:32.859Z,71.93
2018-12-18T00:50:05.294Z,71.95
2018-12-18T00:52:37.529Z,71.80
2018-12-18T00:55:09.798Z,71.91
2018-12-18T00:57:43.887Z,71.96
2018-12-18T01:00:16.112Z,71.72
2018-12-18T01:02:47.868Z,71.66
2018-12-18T01:05:20.313Z,71.80
2018-12-18T01:07:53.507Z,72.10
2018-12-18T01:13:17.275Z,72.10
2018-12-18T01:15:48.885Z,72.16
2018-12-18T01:18:21.806Z,72.32
2018-12-18T01:20:53.783Z,71.59
2018-12-18T01:23:25.815Z,71.90
2018-12-18T01:26:00.243Z,72.20
2018-12-18T01:28:34.123Z,71.86
2018-12-18T01:31:05.922Z,71.97
2018-12-18T01:33:38.426Z,72.29
2018-12-18T01:38:42.095Z,72.46
2018-12-18T01:41:14.611Z,72.65
2018-12-18T01:43:46.597Z,72.78
2018-12-18T01:46:18.605Z,72.80
2018-12-18T01:48:50.704Z,72.66
2018-12-18T01:51:22.823Z,72.62
2018-12-18T01:53:55.008Z,72.68
2018-12-18T01:56:27.512Z,72.95
2018-12-18T01:58:59.860Z,73.10
2018-12-18T02:01:29.932Z,73.26
2018-12-18T02:04:05.926Z,72.88
2018-12-18T02:06:35.918Z,73.16
2018-12-18T02:09:08.731Z,73.51
2018-12-18T02:11:40.591Z,73.62
2018-12-18T02:14:12.659Z,73.60
2018-12-18T02:16:44.781Z,74.29
2018-12-18T02:19:17.292Z,74.22
2018-12-18T02:21:49.528Z,74.10
2018-12-18T02:24:21.937Z,74.21
2018-12-18T02:26:53.954Z,74.18
2018-12-18T02:29:26.224Z,74.41
2018-12-18T02:31:56.494Z,74.54
2018-12-18T02:34:28.971Z,74.29
2018-12-18T02:37:00.896Z,73.96
2018-12-18T02:39:35.536Z,73.94
2018-12-18T02:42:07.965Z,74.45
2018-12-18T02:44:40.385Z,74.62
2018-12-18T02:47:12.764Z,74.09
2018-12-18T02:49:45.201Z,74.07
2018-12-18T02:52:15.288Z,73.61
2018-12-18T02:54:47.278Z,73.58
2018-12-18T02:57:17.776Z,73.73
2018-12-18T02:59:49.649Z,73.34
2018-12-18T03:02:20.163Z,73.69
2018-12-18T03:04:52.535Z,73.82
2018-12-18T03:07:24.568Z,73.52
2018-12-18T03:09:56.716Z,72.93
2018-12-18T03:12:26.944Z,73.33
2018-12-18T03:14:59.003Z,73.08
2018-12-18T03:17:31.071Z,72.60
2018-12-18T03:20:03.198Z,72.65
2018-12-18T03:22:35.578Z,72.97
2018-12-18T03:25:08.007Z,72.98
2018-12-18T03:27:38.129Z,73.29
2018-12-18T03:30:10.467Z,72.60
2018-12-18T03:32:48.666Z,73.35
2018-12-18T03:35:21.073Z,73.39
2018-12-18T03:37:53.340Z,73.04
2018-12-18T03:40:25.691Z,72.96
2018-12-18T03:42:58.127Z,72.95
2018-12-18T03:45:30.599Z,73.10
2018-12-18T03:48:02.499Z,73.09
2018-12-18T03:50:34.647Z,73.01
2018-12-18T03:53:06.821Z,73.59
2018-12-18T03:55:39.010Z,73.13
2018-12-18T03:58:11.317Z,72.85
2018-12-18T04:00:41.651Z,72.88
2018-12-18T04:03:13.830Z,73.14
2018-12-18T04:05:45.868Z,73.17
2018-12-18T04:08:18.171Z,72.90
2018-12-18T04:10:50.245Z,72.70
2018-12-18T04:13:22.094Z,72.97
2018-12-18T04:15:54.025Z,72.61
2018-12-18T04:18:26.035Z,72.85
2018-12-18T04:20:58.276Z,72.75
2018-12-18T04:23:30.707Z,72.80
2018-12-18T04:26:02.727Z,72.76
2018-12-18T04:28:35.024Z,72.92
2018-12-18T04:31:09.483Z,72.78
2018-12-18T04:33:41.376Z,72.72
2018-12-18T04:36:11.439Z,73.05
2018-12-18T04:38:43.605Z,72.86
2018-12-18T04:41:14.133Z,72.93
2018-12-18T04:43:44.420Z,73.27
2018-12-18T04:46:16.725Z,72.99
2018-12-18T04:48:48.549Z,73.39
2018-12-18T04:51:20.743Z,73.68
2018-12-18T04:53:53.089Z,73.63
2018-12-18T04:56:24.816Z,74.25
2018-12-18T04:58:55.111Z,73.90
2018-12-18T05:01:32.475Z,74.19
2018-12-18T05:04:04.489Z,74.46
2018-12-18T05:06:36.637Z,74.59
2018-12-18T05:09:09.153Z,74.90
2018-12-18T05:11:41.910Z,74.52
2018-12-18T05:14:13.639Z,74.33
2018-12-18T05:16:46.137Z,74.79
2018-12-18T05:19:18.431Z,74.50
2018-12-18T05:21:50.793Z,75.24
2018-12-18T05:24:22.942Z,75.50
2018-12-18T05:26:55.056Z,75.73
2018-12-18T05:29:27.194Z,75.42
2018-12-18T05:31:59.332Z,75.47
2018-12-18T05:34:31.655Z,75.50
2018-12-18T05:37:04.010Z,75.21
2018-12-18T05:39:36.055Z,75.77
2018-12-18T05:42:06.286Z,75.30
2018-12-18T05:44:38.631Z,75.81
2018-12-18T05:47:11.531Z,75.34
2018-12-18T05:49:44.303Z,75.80
2018-12-18T05:52:20.219Z,75.32
2018-12-18T05:54:50.415Z,75.43
2018-12-18T05:57:22.785Z,75.84
2018-12-18T05:59:55.516Z,75.70
2018-12-18T06:02:28.917Z,75.73
2018-12-18T06:05:03.273Z,75.99
2018-12-18T06:07:35.153Z,75.70
2018-12-18T06:10:07.076Z,75.46
2018-12-18T06:12:39.619Z,75.36
2018-12-18T06:15:12.007Z,75.18
2018-12-18T06:20:38.121Z,74.99
2018-12-18T06:23:10.290Z,74.60
2018-12-18T06:25:42.599Z,74.56
2018-12-18T06:28:15.041Z,74.37
2018-12-18T06:30:47.416Z,74.83
2018-12-18T06:33:20.934Z,75.04
2018-12-18T06:35:52.823Z,75.09
2018-12-18T06:38:25.861Z,75.10
2018-12-18T06:40:58.382Z,75.48
2018-12-18T06:43:30.904Z,75.33
2018-12-18T06:46:01.132Z,75.74
2018-12-18T06:48:35.779Z,75.87
2018-12-18T06:51:07.681Z,75.68
2018-12-18T06:53:38.110Z,76.07
2018-12-18T06:56:10.459Z,76.00
2018-12-18T06:58:42.819Z,76.16
2018-12-18T07:01:14.771Z,75.52
2018-12-18T07:03:47.139Z,75.81
2018-12-18T07:06:19.279Z,76.03
2018-12-18T07:08:51.284Z,76.19
2018-12-18T07:11:23.310Z,76.21
2018-12-18T07:13:55.872Z,76.03
2018-12-18T07:16:27.925Z,76.11
2018-12-18T07:19:00.555Z,75.76
2018-12-18T07:21:33.045Z,76.17
2018-12-18T07:24:04.654Z,75.61
2018-12-18T07:26:36.697Z,75.44
2018-12-18T07:29:09.244Z,75.60
2018-12-18T07:31:41.414Z,75.51
2018-12-18T07:34:13.619Z,75.79
2018-12-18T07:36:45.899Z,75.80
2018-12-18T07:39:16.062Z,75.33
2018-12-18T07:41:48.282Z,75.49
2018-12-18T07:44:21.029Z,74.88
2018-12-18T07:46:53.468Z,75.10
2018-12-18T07:49:25.972Z,75.20
2018-12-18T07:51:59.719Z,75.20
2018-12-18T07:54:39.458Z,74.95
2018-12-18T07:57:12.163Z,74.82
2018-12-18T07:59:44.318Z,74.62
2018-12-18T08:02:15.424Z,73.90
2018-12-18T08:04:47.812Z,74.17
2018-12-18T08:07:20.495Z,74.37
2018-12-18T08:09:52.741Z,74.50
2018-12-18T08:12:26.719Z,74.27
2018-12-18T08:15:00.474Z,73.99
2018-12-18T08:17:34.719Z,74.10
2018-12-18T08:20:07.472Z,74.24
2018-12-18T08:22:39.365Z,72.97
2018-12-18T08:25:11.529Z,73.25
2018-12-18T08:27:44.275Z,73.72
2018-12-18T08:30:16.225Z,73.10
2018-12-18T08:32:48.519Z,71.65
2018-12-18T08:35:20.593Z,72.10
2018-12-18T08:37:53.128Z,72.28
2018-12-18T08:40:25.484Z,72.52
2018-12-18T08:42:57.900Z,72.27
2018-12-18T08:45:29.867Z,71.60
2018-12-18T08:48:06.159Z,72.22
2018-12-18T08:50:40.757Z,71.65
2018-12-18T08:53:12.589Z,71.00
2018-12-18T08:55:45.134Z,70.86
2018-12-18T08:58:18.190Z,70.68
2018-12-18T09:00:50.116Z,70.95
2018-12-18T09:03:21.924Z,70.81
2018-12-18T09:05:54.265Z,70.46
2018-12-18T09:08:26.559Z,69.98
2018-12-18T09:10:58.420Z,69.45
2018-12-18T09:13:31.719Z,69.33
2018-12-18T09:16:10.559Z,68.64
2018-12-18T09:18:42.878Z,68.76
2018-12-18T09:21:17.558Z,69.15
2018-12-18T09:23:53.173Z,68.64
2018-12-18T09:26:27.147Z,69.06
2018-12-18T09:29:00.149Z,69.32
2018-12-18T09:31:32.579Z,69.38
2018-12-18T09:34:03.762Z,68.10
2018-12-18T09:36:38.828Z,69.03
2018-12-18T09:39:16.633Z,68.37
2018-12-18T09:41:53.411Z,68.47
2018-12-18T09:44:25.253Z,69.08
2018-12-18T09:46:55.447Z,69.22
2018-12-18T09:49:30.087Z,68.95
2018-12-18T09:52:02.051Z,69.09
2018-12-18T09:54:34.427Z,68.69
2018-12-18T09:57:10.713Z,67.94
2018-12-18T09:59:47.207Z,67.78
2018-12-18T10:02:25.919Z,67.40
2018-12-18T10:04:58.326Z,67.17
2018-12-18T10:07:30.643Z,66.63
2018-12-18T10:10:03.203Z,66.47
2018-12-18T10:12:40.113Z,65.73
2018-12-18T10:15:11.927Z,65.88
2018-12-18T10:17:43.941Z,65.27
2018-12-18T10:20:16.595Z,64.50
2018-12-18T10:22:48.923Z,64.74
2018-12-18T10:25:19.200Z,64.05
2018-12-18T10:27:53.256Z,63.77
2018-12-18T10:30:26.024Z,64.56
2018-12-18T10:32:58.622Z,64.19
2018-12-18T10:35:36.520Z,63.66
2018-12-18T10:38:05.776Z,63.66
2018-12-18T10:40:38.994Z,62.77
2018-12-18T10:43:11.408Z,62.29
2018-12-18T10:45:41.570Z,62.06
2018-12-18T10:48:13.908Z,62.21
2018-12-18T10:50:45.978Z,61.82
2018-12-18T10:53:18.511Z,61.33
2018-12-18T10:55:50.662Z,60.87
2018-12-18T10:58:24.262Z,60.90
2018-12-18T11:01:02.075Z,60.94
2018-12-18T11:03:34.186Z,61.49
2018-12-18T11:06:09.933Z,60.80
2018-12-18T11:08:40.687Z,60.88
2018-12-18T11:11:13.400Z,60.13
2018-12-18T11:13:45.672Z,60.04
2018-12-18T11:16:17.743Z,59.91
2018-12-18T11:18:51.790Z,60.71
2018-12-18T11:21:24.183Z,59.85
2018-12-18T11:23:56.615Z,60.26
2018-12-18T11:26:30.809Z,60.41
2018-12-18T11:29:02.866Z,59.80
2018-12-18T11:31:35.220Z,59.50
2018-12-18T11:34:07.750Z,59.18
2018-12-18T11:36:42.350Z,57.25
2018-12-18T11:39:14.118Z,56.55
2018-12-18T11:41:51.031Z,54.54
2018-12-18T11:44:23.452Z,55.01
2018-12-18T11:46:55.435Z,54.78
2018-12-18T11:49:27.254Z,55.27
2018-12-18T11:51:59.516Z,54.78
2018-12-18T11:54:31.385Z,54.12
2018-12-18T11:57:03.778Z,52.63
2018-12-18T11:59:36.328Z,52.56
2018-12-18T12:02:11.052Z,52.57
2018-12-18T12:04:43.247Z,52.59
2018-12-18T12:07:31.059Z,52.28
2018-12-18T12:10:14.281Z,51.25
2018-12-18T12:12:46.947Z,52.04
2018-12-18T12:15:19.112Z,51.61
2018-12-18T12:17:52.412Z,51.00
2018-12-18T12:20:24.656Z,51.29
2018-12-18T12:22:55.084Z,50.49
2018-12-18T12:25:29.640Z,49.10
2018-12-18T12:28:06.499Z,49.18
2018-12-18T12:30:39.275Z,49.24
2018-12-18T12:33:13.655Z,49.23
2018-12-18T12:35:45.333Z,50.40
2018-12-18T12:38:17.640Z,49.88
2018-12-18T12:40:48.034Z,50.53
2018-12-18T12:43:24.170Z,50.44
2018-12-18T12:45:56.825Z,50.84
2018-12-18T12:48:33.815Z,51.27
2018-12-18T12:51:06.289Z,50.38
2018-12-18T12:53:38.280Z,50.15
2018-12-18T12:56:10.458Z,49.51
2018-12-18T12:58:42.902Z,49.11
2018-12-18T13:01:15.152Z,49.62
2018-12-18T13:03:47.428Z,49.52
2018-12-18T13:06:20.027Z,50.29
2018-12-18T13:08:52.258Z,50.25
2018-12-18T13:11:25.272Z,50.79
2018-12-18T13:13:57.796Z,50.99
2018-12-18T13:16:31.055Z,50.57
2018-12-18T13:19:03.821Z,50.45
2018-12-18T13:21:35.981Z,50.78
2018-12-18T13:24:09.212Z,50.38
2018-12-18T13:26:41.827Z,49.78
2018-12-18T13:29:13.332Z,48.92
2018-12-18T13:31:44.358Z,49.88
2018-12-18T13:34:17.439Z,50.27
2018-12-18T13:36:48.133Z,50.23
2018-12-18T13:39:20.076Z,50.13
2018-12-18T13:41:52.721Z,50.77
2018-12-18T13:44:28.035Z,50.66
2018-12-18T13:47:01.964Z,50.46
2018-12-18T13:49:35.868Z,50.73
2018-12-18T13:52:08.010Z,52.00
2018-12-18T13:54:42.697Z,52.01
2018-12-18T13:57:15.850Z,52.97
2018-12-18T14:00:14.160Z,52.98
2018-12-18T14:02:46.436Z,52.87
2018-12-18T14:05:18.618Z,53.15
2018-12-18T14:07:51.184Z,53.71
2018-12-18T14:10:23.277Z,54.75
2018-12-18T14:12:57.181Z,54.83
2018-12-18T14:15:31.503Z,56.10
2018-12-18T14:18:03.701Z,56.21
2018-12-18T14:20:38.256Z,56.47
2018-12-18T14:23:09.824Z,57.10
2018-12-18T14:25:42.292Z,57.25
2018-12-18T14:28:14.354Z,58.04
2018-12-18T14:30:46.480Z,58.18
2018-12-18T14:33:18.056Z,59.11
2018-12-18T14:35:50.418Z,59.41
2018-12-18T14:38:20.568Z,59.64
2018-12-18T14:40:52.813Z,60.69
2018-12-18T14:43:25.549Z,61.52
2018-12-18T14:45:57.308Z,61.74
2018-12-18T14:48:30.348Z,62.41
2018-12-18T14:51:02.862Z,63.21
2018-12-18T14:53:32.967Z,63.60
2018-12-18T14:56:05.081Z,64.08
2018-12-18T14:58:37.571Z,64.09
2018-12-18T15:01:09.415Z,64.70
2018-12-18T15:03:41.204Z,65.18
2018-12-18T15:06:13.075Z,65.60
2018-12-18T15:08:45.430Z,65.84
2018-12-18T15:11:19.967Z,66.09
2018-12-18T15:13:51.743Z,66.20
2018-12-18T15:16:23.911Z,66.12
2018-12-18T15:18:56.463Z,66.94
2018-12-18T15:21:28.536Z,67.16
2018-12-18T15:24:00.755Z,67.25
2018-12-18T15:26:33.001Z,67.62
2018-12-18T15:29:05.494Z,68.22
2018-12-18T15:31:37.325Z,68.74
2018-12-18T15:34:09.382Z,68.80
2018-12-18T15:36:42.003Z,69.18
2018-12-18T15:39:13.868Z,69.38
2018-12-18T15:41:45.840Z,69.72
2018-12-18T15:44:18.224Z,70.67
2018-12-18T15:46:52.588Z,71.01
2018-12-18T15:49:24.603Z,70.74
2018-12-18T15:51:56.704Z,70.71
2018-12-18T15:54:29.024Z,70.82
2018-12-18T15:57:01.131Z,70.92
2018-12-18T15:59:33.528Z,71.05
2018-12-18T16:07:15.975Z,70.96
2018-12-18T16:09:44.184Z,69.89
2018-12-18T16:12:16.482Z,69.26
2018-12-18T16:14:48.611Z,69.46
2018-12-18T16:17:21.704Z,68.54
2018-12-18T16:19:54.529Z,69.36
2018-12-18T16:22:26.594Z,69.52
2018-12-18T16:24:58.668Z,70.02
2018-12-18T16:27:30.815Z,69.54
2018-12-18T16:30:02.913Z,69.68
2018-12-18T16:35:25.788Z,70.45
2018-12-18T16:37:58.164Z,70.37
2018-12-18T16:40:29.923Z,70.58
2018-12-18T16:43:02.084Z,71.25
2018-12-18T16:45:34.130Z,71.18
2018-12-18T16:48:06.482Z,71.98
2018-12-18T16:50:38.383Z,72.51
2018-12-18T16:53:10.475Z,72.03
2018-12-18T16:55:45.027Z,72.46
2018-12-18T16:58:16.987Z,72.36
2018-12-18T17:00:49.132Z,72.27
2018-12-18T17:03:23.702Z,72.42
2018-12-18T17:05:55.426Z,72.51
2018-12-18T17:08:27.883Z,72.76
2018-12-18T17:11:00.088Z,71.98
2018-12-18T17:13:32.472Z,72.06
2018-12-18T17:16:06.111Z,72.11
2018-12-18T17:18:37.784Z,72.35
2018-12-18T17:21:09.881Z,73.04
2018-12-18T17:23:42.283Z,72.61
2018-12-18T17:26:15.722Z,73.15
2018-12-18T17:28:47.669Z,73.70
2018-12-18T17:31:17.745Z,73.70
2018-12-18T17:33:49.936Z,73.89
2018-12-18T17:36:22.129Z,74.17
2018-12-18T17:38:54.292Z,74.24
2018-12-18T17:41:26.827Z,74.39
2018-12-18T17:43:56.984Z,74.00
2018-12-18T17:46:29.052Z,73.97
2018-12-18T17:48:59.186Z,74.72
2018-12-18T17:51:33.623Z,74.05
2018-12-18T17:54:05.568Z,74.60
2018-12-18T17:56:35.831Z,74.32
2018-12-18T17:59:06.067Z,74.56
2018-12-18T18:01:38.340Z,74.36
2018-12-18T18:04:10.448Z,74.68
2018-12-18T18:06:40.900Z,74.80
2018-12-18T18:09:11.369Z,74.81
2018-12-18T18:11:43.364Z,74.53
2018-12-18T18:14:15.511Z,74.81
2018-12-18T18:16:49.926Z,74.58
2018-12-18T18:19:21.533Z,74.98
2018-12-18T18:21:53.600Z,74.77
2018-12-18T18:24:23.903Z,74.95
2018-12-18T18:26:55.411Z,74.92
2018-12-18T18:29:27.816Z,74.75
2018-12-18T18:31:59.884Z,75.33
2018-12-18T18:34:34.561Z,75.44
2018-12-18T18:37:06.967Z,75.32
2018-12-18T18:39:39.073Z,74.89
2018-12-18T18:42:11.522Z,74.84
2018-12-18T18:44:44.176Z,74.63
2018-12-18T18:47:15.927Z,75.24
2018-12-18T18:49:48.140Z,75.24
2018-12-18T18:52:18.532Z,74.98
2018-12-18T18:54:50.584Z,74.79
2018-12-18T18:57:22.764Z,75.06
2018-12-18T18:59:56.166Z,75.07
2018-12-18T19:02:28.228Z,74.94
2018-12-18T19:05:00.726Z,74.19
2018-12-18T19:07:35.229Z,74.93
2018-12-18T19:10:08.504Z,74.95
2018-12-18T19:12:40.539Z,74.56
2018-12-18T19:15:12.818Z,75.21
2018-12-18T19:17:45.221Z,75.25
2018-12-18T19:20:17.607Z,75.52
2018-12-18T19:22:51.966Z,75.66
2018-12-18T19:25:24.100Z,75.73
2018-12-18T19:27:56.491Z,75.20
2018-12-18T19:30:30.744Z,75.69
2018-12-18T19:33:02.440Z,75.24
2018-12-18T19:35:34.843Z,75.18
2018-12-18T19:38:07.631Z,75.37
2018-12-18T19:40:39.562Z,75.39
2018-12-18T19:43:11.969Z,75.75
2018-12-18T19:45:43.802Z,75.44
2018-12-18T19:48:14.255Z,75.94
2018-12-18T19:50:46.732Z,76.23
2018-12-18T19:53:18.288Z,75.39
2018-12-18T19:55:52.455Z,76.14
2018-12-18T19:58:24.342Z,76.25
2018-12-18T20:00:56.600Z,76.69
2018-12-18T20:03:29.011Z,76.95
2018-12-18T20:06:01.259Z,76.89
2018-12-18T20:08:35.661Z,76.70
2018-12-18T20:11:07.511Z,76.98
2018-12-18T20:13:42.072Z,76.77
2018-12-18T20:16:14.541Z,76.80
2018-12-18T20:18:48.887Z,77.12
2018-12-18T20:21:20.556Z,76.87
2018-12-18T20:23:52.745Z,76.97
2018-12-18T20:26:24.636Z,77.66
2018-12-18T20:28:57.012Z,77.96
2018-12-18T20:31:27.198Z,78.44
2018-12-18T20:33:57.413Z,78.46
2018-12-18T20:36:29.785Z,78.11
2018-12-18T20:39:01.970Z,78.50
2018-12-18T20:41:34.156Z,78.68
2018-12-18T20:44:07.423Z,78.50
2018-12-18T20:46:39.089Z,78.52
2018-12-18T20:49:11.070Z,78.29
2018-12-18T20:51:45.867Z,78.34
2018-12-18T20:54:19.715Z,78.88
2018-12-18T20:56:52.360Z,78.80
2018-12-18T20:59:24.546Z,79.01
2018-12-18T21:01:56.332Z,78.97
2018-12-18T21:04:37.960Z,78.86
2018-12-18T21:07:10.930Z,79.04
2018-12-18T21:09:42.900Z,79.05
2018-12-18T21:12:15.336Z,78.92
2018-12-18T21:14:47.425Z,78.90
2018-12-18T21:17:19.317Z,79.08
2018-12-18T21:19:52.044Z,79.20
2018-12-18T21:22:23.905Z,79.26
2018-12-18T21:24:55.821Z,79.21
2018-12-18T21:27:29.634Z,79.34
2018-12-18T21:29:59.903Z,78.97
2018-12-18T21:32:31.980Z,79.92
2018-12-18T21:35:04.732Z,80.29
2018-12-18T21:37:37.708Z,79.90
2018-12-18T21:40:24.388Z,79.91
2018-12-18T21:42:56.269Z,80.26
2018-12-18T21:45:30.612Z,79.75
2018-12-18T21:48:04.973Z,80.46
2018-12-18T21:50:37.098Z,80.77
2018-12-18T21:53:11.427Z,80.98
2018-12-18T21:55:43.531Z,79.77
2018-12-18T21:58:15.659Z,80.46
2018-12-18T22:00:49.991Z,80.10
2018-12-18T22:03:21.911Z,80.60
2018-12-18T22:05:52.577Z,80.17
2018-12-18T22:08:24.856Z,79.43
2018-12-18T22:10:57.091Z,80.19
2018-12-18T22:13:29.325Z,80.85
2018-12-18T22:16:01.589Z,80.27
2018-12-18T22:18:37.539Z,80.69
2018-12-18T22:21:11.714Z,81.36
2018-12-18T22:23:43.524Z,81.05
2018-12-18T22:26:15.624Z,81.00
2018-12-18T22:28:45.859Z,80.88
2018-12-18T22:31:18.071Z,80.84
2018-12-18T22:33:48.328Z,81.06
2018-12-18T22:36:20.469Z,80.98
2018-12-18T22:38:50.819Z,80.87
2018-12-18T22:41:23.152Z,81.04
2018-12-18T22:43:55.062Z,80.51
2018-12-18T22:46:25.556Z,81.11
2018-12-18T22:48:58.109Z,81.04
2018-12-18T22:51:29.924Z,81.07
2018-12-18T22:54:02.197Z,80.80
2018-12-18T22:59:26.153Z,81.24
2018-12-18T23:01:57.227Z,80.98
2018-12-18T23:04:29.630Z,80.77
2018-12-18T23:07:01.780Z,81.12
2018-12-18T23:09:32.581Z,80.81
2018-12-18T23:12:04.393Z,80.98
2018-12-18T23:14:36.524Z,81.24
2018-12-18T23:22:09.642Z,81.56
2018-12-18T23:24:41.789Z,81.06
2018-12-18T23:27:12.148Z,81.58
2018-12-18T23:29:44.703Z,81.49
2018-12-18T23:32:14.732Z,80.96
2018-12-18T23:34:47.116Z,80.92
2018-12-18T23:37:19.437Z,80.50
2018-12-18T23:39:51.809Z,80.96
2018-12-18T23:42:23.559Z,81.02
2018-12-18T23:44:54.575Z,80.72
2018-12-18T23:47:26.199Z,81.37
2018-12-18T23:49:56.211Z,80.86
2018-12-18T23:52:26.620Z,81.01
2018-12-18T23:54:58.700Z,81.32
2018-12-18T23:57:28.975Z,80.82
